^^
Datos históricos de la estación: Murcia-Puente Tocinos
Diario Informe para Octubre 11, 2019 Unidades:  Ambas    Ingés   Métrico
Diario Semanal Mensual Anual
  Máxima: Mínima: Promedio:
Temperatura: 78.6 °F /  25.9 °C 66.4 °F /  19.1 °C 72 °F /  22.2 °C
Punto de rocio: 65.7 °F /  18.7 °C 61.5 °F /  16.4 °C 64 °F /  17.8 °C
Humedad: 89% 56.4% 77%
Velocidad viento: 9.7mph /  15.6km/h - 3.5mph /  5.7km/h
Racha viento: 20mph /  32.2km/h - -
Viento- - ESE
Presión: 30.1 in /  1020.8 hPa 30 in /  1017.0 hPa -
Precipitación: 0 in /  0.0 mm    
 
 
Tabla de datos para Octubre 11, 2019
Hora Temperatura Punto de rocio Presión Viento Velocidad viento Racha viento Humedad Intensidad lluvia(por hora) Nubes
00:04 71.2 °F /  21.8 °C 64.8 °F /  18.2 °C 30.1in /  1020.2hPa NNE 1.4mph /  2.2km/h 3mph /  4.8km/h 80% 0in /  0.0mm
00:09 71.2 °F /  21.8 °C 64.8 °F /  18.2 °C 30.1in /  1020.1hPa NNE 1.4mph /  2.2km/h 3mph /  4.8km/h 80% 0in /  0.0mm
00:14 71.2 °F /  21.8 °C 64.8 °F /  18.2 °C 30.1in /  1020.1hPa NNE 1.4mph /  2.2km/h 2.4mph /  3.9km/h 80% 0in /  0.0mm
00:19 71.1 °F /  21.7 °C 64.9 °F /  18.3 °C 30.1in /  1020.1hPa NNE 1.4mph /  2.2km/h 2.4mph /  3.9km/h 80.7% 0in /  0.0mm
00:24 71.1 °F /  21.7 °C 64.9 °F /  18.3 °C 30.1in /  1020.1hPa NNE 1.4mph /  2.2km/h 2.4mph /  3.9km/h 81% 0in /  0.0mm
00:29 71.1 °F /  21.7 °C 64.9 °F /  18.3 °C 30.1in /  1020.1hPa NNE 1.1mph /  1.8km/h 2.3mph /  3.7km/h 81% 0in /  0.0mm
00:34 71.1 °F /  21.7 °C 64.9 °F /  18.3 °C 30.1in /  1020.1hPa Calm   3.5mph /  5.6km/h 81% 0in /  0.0mm
00:39 71.1 °F /  21.7 °C 64.9 °F /  18.3 °C 30.1in /  1020.0hPa NNE 0.3mph /  0.5km/h 3mph /  4.8km/h 81% 0in /  0.0mm
00:44 70.9 °F /  21.6 °C 64.8 °F /  18.2 °C 30.1in /  1020.0hPa NNE 1.4mph /  2.2km/h 2.3mph /  3.7km/h 81% 0in /  0.0mm
00:49 70.9 °F /  21.6 °C 64.8 °F /  18.2 °C 30.1in /  1020.0hPa NNE 1.2mph /  2km/h 2.3mph /  3.7km/h 81% 0in /  0.0mm
00:54 70.9 °F /  21.6 °C 64.8 °F /  18.2 °C 30.1in /  1020.0hPa Calm   2mph /  3.2km/h 81% 0in /  0.0mm
00:59 70.7 °F /  21.5 °C 64.8 °F /  18.2 °C 30.1in /  1020.0hPa Calm   2.4mph /  3.9km/h 81.8% 0in /  0.0mm
01:04 70.5 °F /  21.4 °C 64.8 °F /  18.2 °C 30.1in /  1020.0hPa Calm   2.3mph /  3.7km/h 82% 0in /  0.0mm
01:09 70.3 °F /  21.3 °C 64.8 °F /  18.2 °C 30.1in /  1020.0hPa Calm   1mph /  1.6km/h 82% 0in /  0.0mm
01:14 70.3 °F /  21.3 °C 64.6 °F /  18.1 °C 30.1in /  1020.0hPa Calm   1.8mph /  2.9km/h 82% 0in /  0.0mm
01:19 70.3 °F /  21.3 °C 64.6 °F /  18.1 °C 30.1in /  1020.0hPa Calm   2.3mph /  3.7km/h 82% 0in /  0.0mm
01:24 70.2 °F /  21.2 °C 64.4 °F /  18 °C 30.1in /  1019.9hPa Calm   1mph /  1.6km/h 82% 0in /  0.0mm
01:29 70.2 °F /  21.2 °C 64.4 °F /  18 °C 30.1in /  1019.9hPa Calm   2.9mph /  4.7km/h 82% 0in /  0.0mm
01:34 70 °F /  21.1 °C 64.6 °F /  18.1 °C 30.1in /  1019.9hPa Calm   3mph /  4.8km/h 82.7% 0in /  0.0mm
01:39 70 °F /  21.1 °C 64.6 °F /  18.1 °C 30.1in /  1019.9hPa NNE 0.2mph /  0.4km/h 2.3mph /  3.7km/h 83% 0in /  0.0mm
01:44 70 °F /  21.1 °C 64.6 °F /  18.1 °C 30.1in /  1019.9hPa NNE 1.4mph /  2.2km/h 2mph /  3.2km/h 83% 0in /  0.0mm
01:49 70 °F /  21.1 °C 64.6 °F /  18.1 °C 30.1in /  1020.0hPa NE 1.4mph /  2.2km/h 4mph /  6.4km/h 82.9% 0in /  0.0mm
01:54 70 °F /  21.1 °C 64.2 °F /  17.9 °C 30.1in /  1020.0hPa ESE 1.4mph /  2.2km/h 5mph /  8km/h 82.2% 0in /  0.0mm
01:59 70 °F /  21.1 °C 64.6 °F /  18.1 °C 30.1in /  1020.0hPa ESE 1.4mph /  2.2km/h 5mph /  8km/h 83% 0in /  0.0mm
02:04 69.8 °F /  21 °C 64.4 °F /  18 °C 30.1in /  1020.0hPa ESE 1.4mph /  2.2km/h 2mph /  3.2km/h 83% 0in /  0.0mm
02:09 69.8 °F /  21 °C 64.4 °F /  18 °C 30.1in /  1019.9hPa ESE 1.1mph /  1.8km/h 1.4mph /  2.3km/h 83% 0in /  0.0mm
02:14 69.8 °F /  21 °C 64.4 °F /  18 °C 30.1in /  1019.9hPa Calm   1.4mph /  2.3km/h 83% 0in /  0.0mm
02:19 69.6 °F /  20.9 °C 64.2 °F /  17.9 °C 30.1in /  1019.9hPa Calm   1.4mph /  2.3km/h 83% 0in /  0.0mm
02:24 69.6 °F /  20.9 °C 64.2 °F /  17.9 °C 30.1in /  1019.9hPa Calm   3.6mph /  5.8km/h 83% 0in /  0.0mm
02:29 69.6 °F /  20.9 °C 64.2 °F /  17.9 °C 30.1in /  1019.9hPa ESE 0.4mph /  0.7km/h 4mph /  6.4km/h 83% 0in /  0.0mm
02:34 69.6 °F /  20.9 °C 64.2 °F /  17.9 °C 30.1in /  1019.9hPa ESE 2mph /  3.2km/h 4mph /  6.4km/h 83% 0in /  0.0mm
02:39 69.4 °F /  20.8 °C 64 °F /  17.8 °C 30.1in /  1019.8hPa ESE 1.9mph /  3km/h 3mph /  4.8km/h 83% 0in /  0.0mm
02:44 69.4 °F /  20.8 °C 64 °F /  17.8 °C 30.1in /  1019.8hPa ESE 1.4mph /  2.2km/h 2.4mph /  3.9km/h 83% 0in /  0.0mm
02:49 69.4 °F /  20.8 °C 64 °F /  17.8 °C 30.1in /  1019.8hPa ESE 1.1mph /  1.8km/h 2.3mph /  3.7km/h 83% 0in /  0.0mm
02:54 69.3 °F /  20.7 °C 63.9 °F /  17.7 °C 30.1in /  1019.7hPa Calm   2.3mph /  3.7km/h 83% 0in /  0.0mm
02:59 69.3 °F /  20.7 °C 63.9 °F /  17.7 °C 30.1in /  1019.7hPa Calm   2mph /  3.2km/h 83% 0in /  0.0mm
03:04 69.1 °F /  20.6 °C 63.7 °F /  17.6 °C 30.1in /  1019.7hPa Calm     83% 0in /  0.0mm
03:09 69.1 °F /  20.6 °C 63.7 °F /  17.6 °C 30.1in /  1019.7hPa Calm   2.9mph /  4.7km/h 83% 0in /  0.0mm
03:14 68.9 °F /  20.5 °C 63.5 °F /  17.5 °C 30.1in /  1019.7hPa Calm   3mph /  4.8km/h 83% 0in /  0.0mm
03:19 68.7 °F /  20.4 °C 63.5 °F /  17.5 °C 30.1in /  1019.7hPa ESE 0.2mph /  0.4km/h 2.4mph /  3.9km/h 83.4% 0in /  0.0mm
03:24 68.7 °F /  20.4 °C 63.7 °F /  17.6 °C 30.1in /  1019.7hPa ESE 1.4mph /  2.2km/h 2.3mph /  3.7km/h 84% 0in /  0.0mm
03:29 68.7 °F /  20.4 °C 63.7 °F /  17.6 °C 30.1in /  1019.7hPa ESE 1.4mph /  2.2km/h 3.5mph /  5.6km/h 84% 0in /  0.0mm
03:34 68.5 °F /  20.3 °C 63.5 °F /  17.5 °C 30.1in /  1019.7hPa ESE 1.4mph /  2.2km/h 3mph /  4.8km/h 84% 0in /  0.0mm
03:39 68.5 °F /  20.3 °C 63.5 °F /  17.5 °C 30.1in /  1019.6hPa ESE 1.4mph /  2.2km/h 3mph /  4.8km/h 84% 0in /  0.0mm
03:44 68.5 °F /  20.3 °C 63.5 °F /  17.5 °C 30.1in /  1019.6hPa ESE 1.4mph /  2.2km/h 2.4mph /  3.9km/h 84% 0in /  0.0mm
03:49 68.5 °F /  20.3 °C 63.5 °F /  17.5 °C 30.1in /  1019.6hPa ESE 1.1mph /  1.8km/h 2.3mph /  3.7km/h 84% 0in /  0.0mm
03:54 68.5 °F /  20.3 °C 63.5 °F /  17.5 °C 30.1in /  1019.6hPa Calm   2mph /  3.2km/h 84% 0in /  0.0mm
03:59 68.5 °F /  20.3 °C 63.5 °F /  17.5 °C 30.1in /  1019.6hPa Calm   2.3mph /  3.7km/h 84% 0in /  0.0mm
04:04 68.5 °F /  20.3 °C 63.5 °F /  17.5 °C 30.1in /  1019.6hPa Calm   2.9mph /  4.7km/h 84% 0in /  0.0mm
04:09 68.5 °F /  20.3 °C 63.5 °F /  17.5 °C 30.1in /  1019.5hPa ESE 0.4mph /  0.6km/h 3mph /  4.8km/h 84% 0in /  0.0mm
04:14 68.4 °F /  20.2 °C 63.7 °F /  17.6 °C 30.1in /  1019.5hPa ESE 1.8mph /  2.9km/h 3.5mph /  5.6km/h 84.6% 0in /  0.0mm
04:19 68.4 °F /  20.2 °C 63.7 °F /  17.6 °C 30.1in /  1019.5hPa ESE 1.8mph /  2.9km/h 3mph /  4.8km/h 85% 0in /  0.0mm
04:24 68.4 °F /  20.2 °C 63.7 °F /  17.6 °C 30.1in /  1019.5hPa ESE 1.8mph /  2.9km/h 2.9mph /  4.7km/h 85% 0in /  0.0mm
04:29 68.4 °F /  20.2 °C 63.7 °F /  17.6 °C 30.1in /  1019.5hPa ESE 1.8mph /  2.9km/h 3mph /  4.8km/h 85% 0in /  0.0mm
04:34 68.4 °F /  20.2 °C 63.7 °F /  17.6 °C 30.1in /  1019.5hPa SE 1.8mph /  2.9km/h 4mph /  6.4km/h 85% 0in /  0.0mm
04:39 68.2 °F /  20.1 °C 63.5 °F /  17.5 °C 30.1in /  1019.5hPa SE 1.9mph /  3km/h 5mph /  8km/h 85% 0in /  0.0mm
04:44 68.2 °F /  20.1 °C 63.5 °F /  17.5 °C 30.1in /  1019.5hPa SE 2mph /  3.2km/h 4mph /  6.4km/h 85% 0in /  0.0mm
04:49 68 °F /  20 °C 63.3 °F /  17.4 °C 30.1in /  1019.5hPa SE 2mph /  3.2km/h 4mph /  6.4km/h 85% 0in /  0.0mm
04:54 68 °F /  20 °C 63.7 °F /  17.6 °C 30.1in /  1019.5hPa SE 2mph /  3.2km/h 4mph /  6.4km/h 85.9% 0in /  0.0mm
04:59 67.8 °F /  19.9 °C 63.5 °F /  17.5 °C 30.1in /  1019.5hPa SE 1.9mph /  3.1km/h 4mph /  6.4km/h 86% 0in /  0.0mm
05:04 67.8 °F /  19.9 °C 63.5 °F /  17.5 °C 30.1in /  1019.5hPa SE 1.8mph /  2.9km/h 3mph /  4.8km/h 86% 0in /  0.0mm
05:09 67.8 °F /  19.9 °C 63.5 °F /  17.5 °C 30.1in /  1019.5hPa SE 1.7mph /  2.8km/h 2.9mph /  4.7km/h 86% 0in /  0.0mm
05:14 67.8 °F /  19.9 °C 63.5 °F /  17.5 °C 30.1in /  1019.5hPa SE 1.4mph /  2.2km/h 3mph /  4.8km/h 86% 0in /  0.0mm
05:19 67.8 °F /  19.9 °C 63.3 °F /  17.4 °C 30.1in /  1019.6hPa SE 1.5mph /  2.4km/h 3.6mph /  5.8km/h 85.6% 0in /  0.0mm
05:24 67.6 °F /  19.8 °C 63.1 °F /  17.3 °C 30.1in /  1019.6hPa SE 1.8mph /  2.9km/h 4mph /  6.4km/h 85.6% 0in /  0.0mm
05:29 67.6 °F /  19.8 °C 63.1 °F /  17.3 °C 30.1in /  1019.6hPa SE 1.9mph /  3km/h 4mph /  6.4km/h 86% 0in /  0.0mm
05:34 67.5 °F /  19.7 °C 63.1 °F /  17.3 °C 30.1in /  1019.6hPa SE 2mph /  3.2km/h 4.7mph /  7.6km/h 86% 0in /  0.0mm
05:39 67.5 °F /  19.7 °C 63.1 °F /  17.3 °C 30.1in /  1019.6hPa SSE 2.1mph /  3.3km/h 5mph /  8km/h 86% 0in /  0.0mm
05:44 67.3 °F /  19.6 °C 63.3 °F /  17.4 °C 30.1in /  1019.6hPa SE 2.4mph /  3.9km/h 5mph /  8km/h 86.9% 0in /  0.0mm
05:49 67.3 °F /  19.6 °C 63.3 °F /  17.4 °C 30.1in /  1019.6hPa SE 2.4mph /  3.9km/h 5mph /  8km/h 87% 0in /  0.0mm
05:54 67.3 °F /  19.6 °C 63.3 °F /  17.4 °C 30.1in /  1019.5hPa SE 2.4mph /  3.9km/h 5mph /  8km/h 87% 0in /  0.0mm
05:59 67.3 °F /  19.6 °C 63.3 °F /  17.4 °C 30.1in /  1019.5hPa SSE 2.4mph /  3.8km/h 4.7mph /  7.6km/h 87% 0in /  0.0mm
06:04 67.3 °F /  19.6 °C 63.3 °F /  17.4 °C 30.1in /  1019.5hPa SSE 2mph /  3.2km/h 5mph /  8km/h 87% 0in /  0.0mm
06:09 67.3 °F /  19.6 °C 63.3 °F /  17.4 °C 30.1in /  1019.4hPa SSE 2mph /  3.2km/h 3.6mph /  5.8km/h 87% 0in /  0.0mm
06:14 67.1 °F /  19.5 °C 63.1 °F /  17.3 °C 30.1in /  1019.4hPa SE 1.8mph /  2.9km/h 4mph /  6.4km/h 87% 0in /  0.0mm
06:19 67.1 °F /  19.5 °C 63.1 °F /  17.3 °C 30.1in /  1019.4hPa SSE 2mph /  3.2km/h 5.9mph /  9.5km/h 87% 0in /  0.0mm
06:24 67.1 °F /  19.5 °C 63.1 °F /  17.3 °C 30.1in /  1019.4hPa SSE 2.9mph /  4.7km/h 6mph /  9.7km/h 87% 0in /  0.0mm
06:29 67.1 °F /  19.5 °C 63.1 °F /  17.3 °C 30.1in /  1019.4hPa SSE 2.9mph /  4.7km/h 5mph /  8km/h 87% 0in /  0.0mm
06:34 66.9 °F /  19.4 °C 63 °F /  17.2 °C 30.1in /  1019.4hPa Sur 2.9mph /  4.7km/h 5mph /  8km/h 87% 0in /  0.0mm
06:39 66.9 °F /  19.4 °C 63.1 °F /  17.3 °C 30.1in /  1019.4hPa Sur 2.9mph /  4.7km/h 5mph /  8km/h 87.7% 0in /  0.0mm
06:44 66.9 °F /  19.4 °C 63.1 °F /  17.3 °C 30.1in /  1019.4hPa Sur 2.9mph /  4.7km/h 5mph /  8km/h 88% 0in /  0.0mm
06:49 66.9 °F /  19.4 °C 63.3 °F /  17.4 °C 30.1in /  1019.4hPa Sur 2.7mph /  4.4km/h 4mph /  6.4km/h 88% 0in /  0.0mm
06:54 67.1 °F /  19.5 °C 63.3 °F /  17.4 °C 30.1in /  1019.3hPa Sur 2mph /  3.2km/h 3mph /  4.8km/h 88% 0in /  0.0mm
06:59 67.1 °F /  19.5 °C 63.3 °F /  17.4 °C 30.1in /  1019.3hPa Sur 1.9mph /  3km/h 2.9mph /  4.7km/h 87.8% 0in /  0.0mm
07:04 66.9 °F /  19.4 °C 63 °F /  17.2 °C 30.1in /  1019.3hPa Sur 1.4mph /  2.2km/h 3.5mph /  5.6km/h 87% 0in /  0.0mm
07:09 66.9 °F /  19.4 °C 63 °F /  17.2 °C 30.1in /  1019.3hPa Sur 1.5mph /  2.4km/h 3.6mph /  5.8km/h 87% 0in /  0.0mm
07:14 66.7 °F /  19.3 °C 62.8 °F /  17.1 °C 30.1in /  1019.3hPa Sur 1.8mph /  2.9km/h 4mph /  6.4km/h 87% 0in /  0.0mm
07:19 66.7 °F /  19.3 °C 62.8 °F /  17.1 °C 30.1in /  1019.3hPa Sur 1.7mph /  2.8km/h 3.5mph /  5.6km/h 87% 0in /  0.0mm
07:24 66.7 °F /  19.3 °C 63 °F /  17.2 °C 30.1in /  1019.3hPa Sur 1.4mph /  2.2km/h 4mph /  6.4km/h 87.9% 0in /  0.0mm
07:29 66.7 °F /  19.3 °C 63.1 °F /  17.3 °C 30.1in /  1019.3hPa SSO 1.5mph /  2.4km/h 5mph /  8km/h 88% 0in /  0.0mm
07:34 66.7 °F /  19.3 °C 63.1 °F /  17.3 °C 30.1in /  1019.3hPa SSO 2mph /  3.2km/h 5mph /  8km/h 88% 0in /  0.0mm
07:39 66.6 °F /  19.2 °C 63 °F /  17.2 °C 30.1in /  1019.3hPa SSO 1.9mph /  3km/h 3.5mph /  5.6km/h 88% 0in /  0.0mm
07:44 66.6 °F /  19.2 °C 62.8 °F /  17.1 °C 30.1in /  1019.3hPa SSO 1.4mph /  2.2km/h 3mph /  4.8km/h 87.7% 0in /  0.0mm
07:49 66.4 °F /  19.1 °C 62.8 °F /  17.1 °C 30.1in /  1019.4hPa SSO 1.1mph /  1.8km/h 2mph /  3.2km/h 88% 0in /  0.0mm
07:54 66.4 °F /  19.1 °C 62.8 °F /  17.1 °C 30.1in /  1019.4hPa Calm   3.6mph /  5.8km/h 88% 0in /  0.0mm
07:59 66.4 °F /  19.1 °C 63 °F /  17.2 °C 30.1in /  1019.4hPa Sur 0.4mph /  0.7km/h 4mph /  6.4km/h 89% 0in /  0.0mm
08:04 66.6 °F /  19.2 °C 63.1 °F /  17.3 °C 30.1in /  1019.4hPa SSE 1.8mph /  2.9km/h 5.8mph /  9.3km/h 89% 0in /  0.0mm
08:09 66.6 °F /  19.2 °C 63.1 °F /  17.3 °C 30.1in /  1019.3hPa SSE 1.9mph /  3km/h 6mph /  9.7km/h 89% 0in /  0.0mm
08:14 66.6 °F /  19.2 °C 63.1 °F /  17.3 °C 30.1in /  1019.3hPa SSO 2.4mph /  3.9km/h 5.2mph /  8.4km/h 89% 0in /  0.0mm
08:19 66.6 °F /  19.2 °C 63.1 °F /  17.3 °C 30.1in /  1019.5hPa Sur 2.5mph /  4.1km/h 5mph /  8km/h 89% 0in /  0.0mm
08:24 66.6 °F /  19.2 °C 63.1 °F /  17.3 °C 30.1in /  1019.5hPa SSE 3.1mph /  5km/h 6.2mph /  10km/h 89% 0in /  0.0mm
08:29 66.6 °F /  19.2 °C 63.1 °F /  17.3 °C 30.1in /  1019.5hPa Sur 3.3mph /  5.3km/h 6mph /  9.7km/h 89% 0in /  0.0mm
08:34 66.6 °F /  19.2 °C 63.1 °F /  17.3 °C 30.1in /  1019.6hPa SSO 4mph /  6.4km/h 6.2mph /  10km/h 89% 0in /  0.0mm
08:39 66.6 °F /  19.2 °C 63.1 °F /  17.3 °C 30.1in /  1019.6hPa SSO 3.9mph /  6.3km/h 6mph /  9.7km/h 89% 0in /  0.0mm
08:44 66.6 °F /  19.2 °C 63.3 °F /  17.4 °C 30.1in /  1019.6hPa SO 3.6mph /  5.8km/h 6mph /  9.7km/h 89% 0in /  0.0mm
08:49 66.7 °F /  19.3 °C 63.3 °F /  17.4 °C 30.1in /  1019.6hPa SSO 3.5mph /  5.6km/h 6mph /  9.7km/h 89% 0in /  0.0mm
08:54 66.7 °F /  19.3 °C 63.5 °F /  17.5 °C 30.1in /  1019.6hPa SO 3.1mph /  5km/h 6mph /  9.7km/h 89% 0in /  0.0mm
08:59 66.9 °F /  19.4 °C 63.3 °F /  17.4 °C 30.1in /  1019.6hPa SO 3.1mph /  5km/h 5mph /  8km/h 88.5% 0in /  0.0mm
09:04 67.1 °F /  19.5 °C 63.5 °F /  17.5 °C 30.1in /  1019.8hPa OSO 3.1mph /  5km/h 5mph /  8km/h 88% 0in /  0.0mm
09:09 67.5 °F /  19.7 °C 63.7 °F /  17.6 °C 30.1in /  1019.8hPa SO 3mph /  4.8km/h 5mph /  8km/h 88% 0in /  0.0mm
09:14 67.5 °F /  19.7 °C 63.5 °F /  17.5 °C 30.1in /  1019.8hPa SSO 2.4mph /  3.9km/h 5mph /  8km/h 87.3% 0in /  0.0mm
09:19 67.5 °F /  19.7 °C 63.5 °F /  17.5 °C 30.1in /  1019.9hPa Sur 2.5mph /  4km/h 5mph /  8km/h 87% 0in /  0.0mm
09:24 67.6 °F /  19.8 °C 63.7 °F /  17.6 °C 30.1in /  1019.9hPa Sur 2.9mph /  4.7km/h 6.2mph /  10km/h 87% 0in /  0.0mm
09:29 67.8 °F /  19.9 °C 63.7 °F /  17.6 °C 30.1in /  1019.9hPa Sur 3mph /  4.8km/h 6mph /  9.7km/h 86.5% 0in /  0.0mm
09:34 67.8 °F /  19.9 °C 63.7 °F /  17.6 °C 30.1in /  1020.1hPa Sur 3.6mph /  5.8km/h 6mph /  9.7km/h 86% 0in /  0.0mm
09:39 68.2 °F /  20.1 °C 63.9 °F /  17.7 °C 30.1in /  1020.1hPa Sur 3.7mph /  5.9km/h 6.2mph /  10km/h 86% 0in /  0.0mm
09:44 68.2 °F /  20.1 °C 63.5 °F /  17.5 °C 30.1in /  1020.1hPa Sur 4mph /  6.4km/h 6.9mph /  11.1km/h 85.1% 0in /  0.0mm
09:49 68.4 °F /  20.2 °C 63.7 °F /  17.6 °C 30.1in /  1020.3hPa Sur 4mph /  6.5km/h 7mph /  11.3km/h 85% 0in /  0.0mm
09:54 68.4 °F /  20.2 °C 63.7 °F /  17.6 °C 30.1in /  1020.3hPa SSO 4mph /  6.5km/h 6mph /  9.7km/h 85% 0in /  0.0mm
09:59 68.5 °F /  20.3 °C 63.7 °F /  17.6 °C 30.1in /  1020.3hPa SSO 4mph /  6.5km/h 6.2mph /  10km/h 84.9% 0in /  0.0mm
10:04 68.5 °F /  20.3 °C 63.7 °F /  17.6 °C 30.1in /  1020.5hPa SSO 4mph /  6.5km/h 8.1mph /  13km/h 84% 0in /  0.0mm
10:09 68.5 °F /  20.3 °C 63.5 °F /  17.5 °C 30.1in /  1020.5hPa SSO 4.3mph /  6.9km/h 8.1mph /  13km/h 84% 0in /  0.0mm
10:14 68.5 °F /  20.3 °C 63.5 °F /  17.5 °C 30.1in /  1020.5hPa SSO 5.4mph /  8.7km/h 8.1mph /  13km/h 84% 0in /  0.0mm
10:19 68.5 °F /  20.3 °C 63.5 °F /  17.5 °C 30.1in /  1020.6hPa SSO 5.3mph /  8.6km/h 8mph /  12.9km/h 84% 0in /  0.0mm
10:24 68.5 °F /  20.3 °C 63.5 °F /  17.5 °C 30.1in /  1020.6hPa SSO 5.2mph /  8.4km/h 8.1mph /  13km/h 84% 0in /  0.0mm
10:29 68.7 °F /  20.4 °C 63.7 °F /  17.6 °C 30.1in /  1020.6hPa SSO 5.1mph /  8.2km/h 8mph /  12.9km/h 83.9% 0in /  0.0mm
10:34 69.1 °F /  20.6 °C 63.9 °F /  17.7 °C 30.1in /  1020.8hPa SSO 4.7mph /  7.6km/h 7mph /  11.3km/h 83.9% 0in /  0.0mm
10:39 69.4 °F /  20.8 °C 64 °F /  17.8 °C 30.1in /  1020.8hPa Sur 4.6mph /  7.4km/h 6mph /  9.7km/h 82.9% 0in /  0.0mm
10:44 70 °F /  21.1 °C 64.2 °F /  17.9 °C 30.1in /  1020.8hPa SSO 4mph /  6.5km/h 6mph /  9.7km/h 82% 0in /  0.0mm
10:49 70.3 °F /  21.3 °C 64.2 °F /  17.9 °C 30.1in /  1020.8hPa SSO 3.9mph /  6.2km/h 6mph /  9.7km/h 80.8% 0in /  0.0mm
10:54 70.9 °F /  21.6 °C 64 °F /  17.8 °C 30.1in /  1020.8hPa OSO 3.1mph /  5km/h 6mph /  9.7km/h 79.4% 0in /  0.0mm
10:59 71.1 °F /  21.7 °C 64 °F /  17.8 °C 30.1in /  1020.8hPa OSO 3mph /  4.9km/h 5mph /  8km/h 78.7% 0in /  0.0mm
11:04 71.2 °F /  21.8 °C 64 °F /  17.8 °C 30.1in /  1020.8hPa Oeste 2.9mph /  4.7km/h 5mph /  8km/h 78% 0in /  0.0mm
11:09 71.2 °F /  21.8 °C 64 °F /  17.8 °C 30.1in /  1020.8hPa ONO 2.7mph /  4.3km/h 5mph /  8km/h 78% 0in /  0.0mm
11:14 72 °F /  22.2 °C 64.4 °F /  18 °C 30.1in /  1020.8hPa SO 1.8mph /  2.9km/h 5.2mph /  8.4km/h 77.2% 0in /  0.0mm
11:19 72.7 °F /  22.6 °C 64.6 °F /  18.1 °C 30.1in /  1020.8hPa SSO 1.8mph /  2.9km/h 5mph /  8km/h 75.5% 0in /  0.0mm
11:24 73.4 °F /  23 °C 64.6 °F /  18.1 °C 30.1in /  1020.7hPa Sur 1.8mph /  2.9km/h 5.8mph /  9.3km/h 73.9% 0in /  0.0mm
11:29 73.6 °F /  23.1 °C 64.6 °F /  18.1 °C 30.1in /  1020.7hPa SSO 2.1mph /  3.3km/h 6mph /  9.7km/h 73.2% 0in /  0.0mm
11:34 73.6 °F /  23.1 °C 64.6 °F /  18.1 °C 30.1in /  1020.7hPa SSO 3.1mph /  5km/h 6mph /  9.7km/h 73.3% 0in /  0.0mm
11:39 73.9 °F /  23.3 °C 64.8 °F /  18.2 °C 30.1in /  1020.6hPa SSE 3mph /  4.8km/h 6mph /  9.7km/h 73.2% 0in /  0.0mm
11:44 74.5 °F /  23.6 °C 64.4 °F /  18 °C 30.1in /  1020.6hPa ESE 2.4mph /  3.9km/h 5.2mph /  8.4km/h 71.1% 0in /  0.0mm
11:49 74.5 °F /  23.6 °C 64.8 °F /  18.2 °C 30.1in /  1020.6hPa NNE 2.5mph /  4km/h 6.9mph /  11.1km/h 71.5% 0in /  0.0mm
11:54 74.7 °F /  23.7 °C 64.8 °F /  18.2 °C 30.1in /  1020.5hPa Este 2.9mph /  4.7km/h 7mph /  11.3km/h 71.4% 0in /  0.0mm
11:59 75 °F /  23.9 °C 64.9 °F /  18.3 °C 30.1in /  1020.5hPa ESE 2.7mph /  4.3km/h 6.9mph /  11.1km/h 70.8% 0in /  0.0mm
12:04 75.2 °F /  24 °C 64.8 °F /  18.2 °C 30.1in /  1020.5hPa NNO 2mph /  3.2km/h 7mph /  11.3km/h 70.3% 0in /  0.0mm
12:09 75.4 °F /  24.1 °C 64.8 °F /  18.2 °C 30.1in /  1020.4hPa Este 2.2mph /  3.6km/h 6.2mph /  10km/h 70% 0in /  0.0mm
12:14 75.4 °F /  24.1 °C 64.9 °F /  18.3 °C 30.1in /  1020.4hPa NE 3.1mph /  5km/h 6mph /  9.7km/h 70% 0in /  0.0mm
12:19 75.4 °F /  24.1 °C 64.9 °F /  18.3 °C 30.1in /  1020.4hPa NNE 3.1mph /  5km/h 5.8mph /  9.3km/h 70% 0in /  0.0mm
12:24 75.4 °F /  24.1 °C 65.1 °F /  18.4 °C 30.1in /  1020.3hPa NE 3.1mph /  5km/h 9.2mph /  14.8km/h 70.6% 0in /  0.0mm
12:29 75.4 °F /  24.1 °C 65.1 °F /  18.4 °C 30.1in /  1020.3hPa NE 3.4mph /  5.5km/h 10.7mph /  17.2km/h 70.5% 0in /  0.0mm
12:34 74.8 °F /  23.8 °C 64.6 °F /  18.1 °C 30.1in /  1020.3hPa ENE 4.7mph /  7.6km/h 11mph /  17.7km/h 70.2% 0in /  0.0mm
12:39 74.7 °F /  23.7 °C 64.6 °F /  18.1 °C 30.1in /  1020.2hPa ENE 4.9mph /  7.9km/h 10.7mph /  17.2km/h 70.8% 0in /  0.0mm
12:44 74.7 °F /  23.7 °C 64 °F /  17.8 °C 30.1in /  1020.2hPa NE 5.9mph /  9.5km/h 11.4mph /  18.3km/h 69.4% 0in /  0.0mm
12:49 74.8 °F /  23.8 °C 63.9 °F /  17.7 °C 30.1in /  1020.2hPa NE 6mph /  9.6km/h 12mph /  19.3km/h 68.9% 0in /  0.0mm
12:54 74.8 °F /  23.8 °C 64.2 °F /  17.9 °C 30.1in /  1020.0hPa NE 6.2mph /  10km/h 12mph /  19.3km/h 69.3% 0in /  0.0mm
12:59 75.2 °F /  24 °C 64.2 °F /  17.9 °C 30.1in /  1020.0hPa NE 5.8mph /  9.3km/h 10.4mph /  16.7km/h 68.9% 0in /  0.0mm
13:04 75.6 °F /  24.2 °C 64.4 °F /  18 °C 30.1in /  1020.0hPa NE 4.3mph /  6.9km/h 10.4mph /  16.7km/h 68.5% 0in /  0.0mm
13:09 75.9 °F /  24.4 °C 64.8 °F /  18.2 °C 30.1in /  1020.0hPa NNE 4.3mph /  6.9km/h 9mph /  14.5km/h 68.1% 0in /  0.0mm
13:14 76.6 °F /  24.8 °C 64.8 °F /  18.2 °C 30.1in /  1020.0hPa NE 4.3mph /  6.9km/h 10.4mph /  16.7km/h 66.8% 0in /  0.0mm
13:19 76.6 °F /  24.8 °C 64.8 °F /  18.2 °C 30.1in /  1020.0hPa NE 4.5mph /  7.3km/h 11.5mph /  18.5km/h 66.7% 0in /  0.0mm
13:24 76.5 °F /  24.7 °C 64.6 °F /  18.1 °C 30.1in /  1019.7hPa NE 5.4mph /  8.7km/h 12mph /  19.3km/h 66.7% 0in /  0.0mm
13:29 76.3 °F /  24.6 °C 64.6 °F /  18.1 °C 30.1in /  1019.7hPa NNE 5.5mph /  8.9km/h 12mph /  19.3km/h 67% 0in /  0.0mm
13:34 76.6 °F /  24.8 °C 64.6 °F /  18.1 °C 30.1in /  1019.7hPa North 5.9mph /  9.5km/h 9.2mph /  14.8km/h 66.3% 0in /  0.0mm
13:39 77 °F /  25 °C 64.4 °F /  18 °C 30.1in /  1019.4hPa NNE 5.8mph /  9.3km/h 11.5mph /  18.5km/h 65.1% 0in /  0.0mm
13:44 77.2 °F /  25.1 °C 64.2 °F /  17.9 °C 30.1in /  1019.4hPa NE 5.2mph /  8.4km/h 15.2mph /  24.5km/h 64.5% 0in /  0.0mm
13:49 76.8 °F /  24.9 °C 64.2 °F /  17.9 °C 30.1in /  1019.4hPa NE 6mph /  9.6km/h 15mph /  24.1km/h 65% 0in /  0.0mm
13:54 77 °F /  25 °C 64.2 °F /  17.9 °C 30.1in /  1019.3hPa NE 9.2mph /  14.8km/h 14mph /  22.5km/h 64.9% 0in /  0.0mm
13:59 77.4 °F /  25.2 °C 64.2 °F /  17.9 °C 30.1in /  1019.3hPa NNE 8.4mph /  13.6km/h 13mph /  20.9km/h 64.3% 0in /  0.0mm
14:04 77.9 °F /  25.5 °C 64.6 °F /  18.1 °C 30.1in /  1019.3hPa NE 6.2mph /  10km/h 16.3mph /  26.2km/h 63.7% 0in /  0.0mm
14:09 77.7 °F /  25.4 °C 64.2 °F /  17.9 °C 30.1in /  1018.8hPa NNE 6.8mph /  10.9km/h 16.1mph /  25.9km/h 63.3% 0in /  0.0mm
14:14 77.5 °F /  25.3 °C 64.4 °F /  18 °C 30.1in /  1018.8hPa NE 9.2mph /  14.8km/h 16.8mph /  27km/h 64.4% 0in /  0.0mm
14:19 77.7 °F /  25.4 °C 64.2 °F /  17.9 °C 30.1in /  1018.8hPa NE 8.9mph /  14.3km/h 17.3mph /  27.8km/h 63.4% 0in /  0.0mm
14:24 77.5 °F /  25.3 °C 63.9 °F /  17.7 °C 30.1in /  1018.6hPa NE 7.6mph /  12.2km/h 17mph /  27.4km/h 63% 0in /  0.0mm
14:29 77.7 °F /  25.4 °C 63.5 °F /  17.5 °C 30.1in /  1018.6hPa NE 7.6mph /  12.2km/h 14mph /  22.5km/h 61.6% 0in /  0.0mm
14:34 78.1 °F /  25.6 °C 63 °F /  17.2 °C 30.1in /  1018.6hPa NE 7.6mph /  12.2km/h 14mph /  22.5km/h 59.7% 0in /  0.0mm
14:39 78.3 °F /  25.7 °C 63 °F /  17.2 °C 30.1in /  1018.5hPa NE 7.3mph /  11.8km/h 14mph /  22.5km/h 59.5% 0in /  0.0mm
14:44 78.3 °F /  25.7 °C 62.8 °F /  17.1 °C 30.1in /  1018.5hPa ENE 6.2mph /  10km/h 13mph /  20.9km/h 58.9% 0in /  0.0mm
14:49 78.3 °F /  25.7 °C 62.2 °F /  16.8 °C 30.1in /  1018.5hPa NE 6.6mph /  10.7km/h 13mph /  20.9km/h 57.7% 0in /  0.0mm
14:54 78.4 °F /  25.8 °C 62.4 °F /  16.9 °C 30.1in /  1018.3hPa ENE 8.5mph /  13.7km/h 15.2mph /  24.5km/h 58.2% 0in /  0.0mm
14:59 78.4 °F /  25.8 °C 61.5 °F /  16.4 °C 30.1in /  1018.3hPa NE 8.2mph /  13.2km/h 15mph /  24.1km/h 56.4% 0in /  0.0mm
15:04 78.4 °F /  25.8 °C 62.1 °F /  16.7 °C 30.1in /  1018.3hPa NNE 7.4mph /  11.9km/h 15mph /  24.1km/h 57.5% 0in /  0.0mm
15:09 78.4 °F /  25.8 °C 62.4 °F /  16.9 °C 30.1in /  1017.9hPa NNE 7.6mph /  12.3km/h 15.2mph /  24.5km/h 58.1% 0in /  0.0mm
15:14 78.4 °F /  25.8 °C 62.1 °F /  16.7 °C 30.1in /  1017.9hPa NE 8.7mph /  14km/h 15mph /  24.1km/h 57.2% 0in /  0.0mm
15:19 78.3 °F /  25.7 °C 61.7 °F /  16.5 °C 30.1in /  1017.9hPa NE 8.6mph /  13.9km/h 14mph /  22.5km/h 56.7% 0in /  0.0mm
15:24 78.4 °F /  25.8 °C 61.9 °F /  16.6 °C 30.1in /  1017.8hPa NE 8.5mph /  13.7km/h 14mph /  22.5km/h 56.9% 0in /  0.0mm
15:29 78.6 °F /  25.9 °C 62.4 °F /  16.9 °C 30.1in /  1017.8hPa NE 8.5mph /  13.7km/h 18.5mph /  29.8km/h 57.6% 0in /  0.0mm
15:34 78.4 °F /  25.8 °C 63 °F /  17.2 °C 30.1in /  1017.8hPa NE 8.7mph /  14km/h 19mph /  30.6km/h 58.7% 0in /  0.0mm
15:39 78.4 °F /  25.8 °C 63.3 °F /  17.4 °C 30.1in /  1017.6hPa NE 8.8mph /  14.2km/h 14mph /  22.5km/h 59.7% 0in /  0.0mm
15:44 78.4 °F /  25.8 °C 63.1 °F /  17.3 °C 30.1in /  1017.6hPa NE 9.2mph /  14.8km/h 18.4mph /  29.6km/h 59.6% 0in /  0.0mm
15:49 78.3 °F /  25.7 °C 63.3 °F /  17.4 °C 30.1in /  1017.6hPa NE 9.3mph /  15km/h 19.6mph /  31.5km/h 60% 0in /  0.0mm
15:54 78.3 °F /  25.7 °C 63.3 °F /  17.4 °C 30.1in /  1017.5hPa NE 9.7mph /  15.6km/h 20mph /  32.2km/h 60% 0in /  0.0mm
15:59 78.4 °F /  25.8 °C 62.8 °F /  17.1 °C 30.1in /  1017.5hPa NE 9.4mph /  15.2km/h 15.2mph /  24.5km/h 58.7% 0in /  0.0mm
16:04 78.4 °F /  25.8 °C 63 °F /  17.2 °C 30.1in /  1017.5hPa NE 8.7mph /  14km/h 15mph /  24.1km/h 59.2% 0in /  0.0mm
16:09 78.4 °F /  25.8 °C 63.5 °F /  17.5 °C 30in /  1017.3hPa NE 8.6mph /  13.8km/h 16.1mph /  25.9km/h 60% 0in /  0.0mm
16:14 78.6 °F /  25.9 °C 63.7 °F /  17.6 °C 30in /  1017.3hPa NE 8.1mph /  13km/h 18.1mph /  29.1km/h 60.2% 0in /  0.0mm
16:19 78.3 °F /  25.7 °C 63.7 °F /  17.6 °C 30in /  1017.3hPa NE 8.2mph /  13.2km/h 18.4mph /  29.6km/h 60.7% 0in /  0.0mm
16:24 78.4 °F /  25.8 °C 63.1 °F /  17.3 °C 30in /  1017.2hPa NE 8.5mph /  13.7km/h 16.1mph /  25.9km/h 59.6% 0in /  0.0mm
16:29 78.4 °F /  25.8 °C 63.1 °F /  17.3 °C 30in /  1017.2hPa NE 8.3mph /  13.4km/h 16.1mph /  25.9km/h 59.6% 0in /  0.0mm
16:34 78.4 °F /  25.8 °C 63.3 °F /  17.4 °C 30in /  1017.3hPa ENE 7.6mph /  12.2km/h 16mph /  25.7km/h 60% 0in /  0.0mm
16:39 78.4 °F /  25.8 °C 63.9 °F /  17.7 °C 30in /  1017.3hPa NE 7.8mph /  12.5km/h 19mph /  30.6km/h 61% 0in /  0.0mm
16:44 78.1 °F /  25.6 °C 63.9 °F /  17.7 °C 30in /  1017.3hPa NE 8.5mph /  13.7km/h 19mph /  30.6km/h 61.6% 0in /  0.0mm
16:49 77.7 °F /  25.4 °C 63.5 °F /  17.5 °C 30in /  1017.3hPa NE 8.5mph /  13.7km/h 18mph /  29km/h 61.8% 0in /  0.0mm
16:54 77.7 °F /  25.4 °C 63.3 °F /  17.4 °C 30in /  1017.2hPa NE 8.7mph /  14km/h 13mph /  20.9km/h 61.1% 0in /  0.0mm
16:59 77.5 °F /  25.3 °C 63.5 °F /  17.5 °C 30in /  1017.2hPa NE 8.8mph /  14.2km/h 14mph /  22.5km/h 61.7% 0in /  0.0mm
17:04 77.7 °F /  25.4 °C 63.5 °F /  17.5 °C 30in /  1017.2hPa NE 9.2mph /  14.8km/h 14mph /  22.5km/h 61.7% 0in /  0.0mm
17:09 77.9 °F /  25.5 °C 63.5 °F /  17.5 °C 30in /  1017.2hPa NE 9.1mph /  14.6km/h 15mph /  24.1km/h 61.4% 0in /  0.0mm
17:14 77.5 °F /  25.3 °C 63.1 °F /  17.3 °C 30in /  1017.2hPa NE 8.5mph /  13.7km/h 15.2mph /  24.5km/h 61.1% 0in /  0.0mm
17:19 77.5 °F /  25.3 °C 63.3 °F /  17.4 °C 30in /  1017.2hPa NE 8.6mph /  13.9km/h 16.1mph /  25.9km/h 61.6% 0in /  0.0mm
17:24 77.4 °F /  25.2 °C 63.9 °F /  17.7 °C 30in /  1017.0hPa NE 9.2mph /  14.8km/h 16mph /  25.7km/h 63.1% 0in /  0.0mm
17:29 77.4 °F /  25.2 °C 64.2 °F /  17.9 °C 30in /  1017.0hPa ENE 8.6mph /  13.9km/h 14mph /  22.5km/h 64% 0in /  0.0mm
17:34 77.2 °F /  25.1 °C 64 °F /  17.8 °C 30in /  1017.0hPa NE 6.4mph /  10.3km/h 14.5mph /  23.3km/h 64% 0in /  0.0mm
17:39 76.8 °F /  24.9 °C 63.7 °F /  17.6 °C 30in /  1017.0hPa NE 6.8mph /  11km/h 15mph /  24.1km/h 64.3% 0in /  0.0mm
17:44 76.6 °F /  24.8 °C 64 °F /  17.8 °C 30in /  1017.0hPa ENE 8.5mph /  13.7km/h 13mph /  20.9km/h 65% 0in /  0.0mm
17:49 76.6 °F /  24.8 °C 64 °F /  17.8 °C 30in /  1017.0hPa ENE 8.1mph /  13.1km/h 13mph /  20.9km/h 65% 0in /  0.0mm
17:54 76.5 °F /  24.7 °C 64 °F /  17.8 °C 30in /  1017.0hPa ENE 6.9mph /  11.1km/h 14.5mph /  23.3km/h 65.6% 0in /  0.0mm
17:59 76.3 °F /  24.6 °C 64.2 °F /  17.9 °C 30in /  1017.0hPa ENE 6.9mph /  11.1km/h 15mph /  24.1km/h 66.2% 0in /  0.0mm
18:04 76.3 °F /  24.6 °C 64.4 °F /  18 °C 30in /  1017.0hPa NE 6.9mph /  11.1km/h 13.5mph /  21.7km/h 67% 0in /  0.0mm
18:09 75.9 °F /  24.4 °C 64.2 °F /  17.9 °C 30in /  1017.0hPa NE 6.8mph /  11km/h 14mph /  22.5km/h 67% 0in /  0.0mm
18:14 75.9 °F /  24.4 °C 64.6 °F /  18.1 °C 30in /  1017.0hPa ENE 6.4mph /  10.3km/h 13mph /  20.9km/h 67.7% 0in /  0.0mm
18:19 75.7 °F /  24.3 °C 64.6 °F /  18.1 °C 30in /  1017.2hPa NE 6.4mph /  10.3km/h 13mph /  20.9km/h 68% 0in /  0.0mm
18:24 75.7 °F /  24.3 °C 64.6 °F /  18.1 °C 30in /  1017.2hPa ENE 6.4mph /  10.3km/h 12mph /  19.3km/h 68.4% 0in /  0.0mm
18:29 75.6 °F /  24.2 °C 64.8 °F /  18.2 °C 30in /  1017.2hPa NE 6.4mph /  10.3km/h 11.8mph /  19km/h 69% 0in /  0.0mm
18:34 75.4 °F /  24.1 °C 64.6 °F /  18.1 °C 30in /  1017.3hPa ENE 6.2mph /  10km/h 12mph /  19.3km/h 69.1% 0in /  0.0mm
18:39 75.4 °F /  24.1 °C 64.9 °F /  18.3 °C 30in /  1017.3hPa ENE 6mph /  9.7km/h 11mph /  17.7km/h 70% 0in /  0.0mm
18:44 75.2 °F /  24 °C 64.8 °F /  18.2 °C 30in /  1017.3hPa NE 5.4mph /  8.7km/h 9.2mph /  14.8km/h 70% 0in /  0.0mm
18:49 75 °F /  23.9 °C 64.9 °F /  18.3 °C 30in /  1017.3hPa NE 5.3mph /  8.5km/h 10.4mph /  16.7km/h 70.6% 0in /  0.0mm
18:54 75 °F /  23.9 °C 64.9 °F /  18.3 °C 30in /  1017.2hPa NE 4.7mph /  7.6km/h 11.5mph /  18.5km/h 71% 0in /  0.0mm
18:59 74.8 °F /  23.8 °C 64.8 °F /  18.2 °C 30in /  1017.2hPa ENE 5.1mph /  8.2km/h 12mph /  19.3km/h 71% 0in /  0.0mm
19:04 74.7 °F /  23.7 °C 64.6 °F /  18.1 °C 30in /  1017.2hPa NE 6.4mph /  10.3km/h 11mph /  17.7km/h 71% 0in /  0.0mm
19:09 74.7 °F /  23.7 °C 64.9 °F /  18.3 °C 30in /  1017.2hPa NE 6mph /  9.7km/h 9mph /  14.5km/h 72% 0in /  0.0mm
19:14 74.7 °F /  23.7 °C 64.9 °F /  18.3 °C 30in /  1017.2hPa NE 4.3mph /  6.9km/h 8.1mph /  13km/h 72% 0in /  0.0mm
19:19 74.5 °F /  23.6 °C 64.9 °F /  18.3 °C 30in /  1017.2hPa NE 4.5mph /  7.3km/h 9.7mph /  15.6km/h 72.4% 0in /  0.0mm
19:24 74.1 °F /  23.4 °C 64.9 °F /  18.3 °C 30in /  1017.0hPa NE 5.4mph /  8.7km/h 10mph /  16.1km/h 73% 0in /  0.0mm
19:29 74.1 °F /  23.4 °C 64.9 °F /  18.3 °C 30in /  1017.0hPa NE 5.2mph /  8.4km/h 9mph /  14.5km/h 73% 0in /  0.0mm
19:34 73.9 °F /  23.3 °C 64.9 °F /  18.3 °C 30in /  1017.2hPa NE 4.3mph /  6.9km/h 8.1mph /  13km/h 73.3% 0in /  0.0mm
19:39 73.9 °F /  23.3 °C 65.1 °F /  18.4 °C 30in /  1017.2hPa NE 4.3mph /  7km/h 8.5mph /  13.7km/h 74% 0in /  0.0mm
19:44 73.8 °F /  23.2 °C 64.9 °F /  18.3 °C 30in /  1017.2hPa NE 4.7mph /  7.6km/h 9mph /  14.5km/h 74% 0in /  0.0mm
19:49 73.8 °F /  23.2 °C 65.3 °F /  18.5 °C 30in /  1017.2hPa NE 4.6mph /  7.4km/h 7.4mph /  11.9km/h 75% 0in /  0.0mm
19:54 73.6 °F /  23.1 °C 65.1 °F /  18.4 °C 30in /  1017.2hPa NE 4.3mph /  6.9km/h 7mph /  11.3km/h 75% 0in /  0.0mm
19:59 73.6 °F /  23.1 °C 65.1 °F /  18.4 °C 30in /  1017.2hPa NE 4.2mph /  6.8km/h 8.1mph /  13km/h 75% 0in /  0.0mm
20:04 73.4 °F /  23 °C 65.3 °F /  18.5 °C 30in /  1017.2hPa NE 4mph /  6.5km/h 8mph /  12.9km/h 75.8% 0in /  0.0mm
20:09 73.2 °F /  22.9 °C 65.3 °F /  18.5 °C 30in /  1017.2hPa NE 4mph /  6.5km/h 6.2mph /  10km/h 76% 0in /  0.0mm
20:14 73.2 °F /  22.9 °C 65.1 °F /  18.4 °C 30in /  1017.2hPa NE 4mph /  6.5km/h 7.4mph /  11.9km/h 76% 0in /  0.0mm
20:19 73 °F /  22.8 °C 65.3 °F /  18.5 °C 30in /  1017.2hPa NE 4mph /  6.5km/h 7mph /  11.3km/h 76.6% 0in /  0.0mm
20:24 72.9 °F /  22.7 °C 65.3 °F /  18.5 °C 30in /  1017.2hPa NE 4mph /  6.5km/h 6mph /  9.7km/h 77% 0in /  0.0mm
20:29 72.9 °F /  22.7 °C 65.3 °F /  18.5 °C 30in /  1017.2hPa NE 3.9mph /  6.3km/h 6.9mph /  11.1km/h 77.4% 0in /  0.0mm
20:34 72.7 °F /  22.6 °C 65.5 °F /  18.6 °C 30in /  1017.3hPa NE 3.6mph /  5.8km/h 7mph /  11.3km/h 78% 0in /  0.0mm
20:39 72.7 °F /  22.6 °C 65.3 °F /  18.5 °C 30in /  1017.3hPa NNE 3.5mph /  5.6km/h 5.4mph /  8.7km/h 78% 0in /  0.0mm
20:44 72.3 °F /  22.4 °C 65.3 °F /  18.5 °C 30in /  1017.3hPa NE 2.9mph /  4.7km/h 6mph /  9.7km/h 78.5% 0in /  0.0mm
20:49 72.3 °F /  22.4 °C 65.5 °F /  18.6 °C 30in /  1017.3hPa NNE 2.9mph /  4.7km/h 6mph /  9.7km/h 79% 0in /  0.0mm
20:54 72.3 °F /  22.4 °C 65.3 °F /  18.5 °C 30in /  1017.2hPa North 3.1mph /  5km/h 5mph /  8km/h 79% 0in /  0.0mm
20:59 72.1 °F /  22.3 °C 65.3 °F /  18.5 °C 30in /  1017.2hPa NE 3mph /  4.9km/h 5mph /  8km/h 79% 0in /  0.0mm
21:04 72.1 °F /  22.3 °C 65.5 °F /  18.6 °C 30in /  1017.3hPa NE 2.9mph /  4.7km/h 5.8mph /  9.3km/h 79.7% 0in /  0.0mm
21:09 72.1 °F /  22.3 °C 65.7 °F /  18.7 °C 30in /  1017.3hPa NE 3mph /  4.9km/h 6mph /  9.7km/h 80% 0in /  0.0mm
21:14 72 °F /  22.2 °C 65.5 °F /  18.6 °C 30in /  1017.3hPa NE 3.6mph /  5.8km/h 6mph /  9.7km/h 80% 0in /  0.0mm
21:19 72 °F /  22.2 °C 65.5 °F /  18.6 °C 30in /  1017.3hPa NE 3.6mph /  5.8km/h 6.2mph /  10km/h 80% 0in /  0.0mm
21:24 72 °F /  22.2 °C 65.5 °F /  18.6 °C 30in /  1017.2hPa NE 3.6mph /  5.8km/h 6mph /  9.7km/h 80% 0in /  0.0mm
21:29 72 °F /  22.2 °C 65.5 °F /  18.6 °C 30in /  1017.2hPa NE 3.5mph /  5.6km/h 5mph /  8km/h 80% 0in /  0.0mm
21:34 71.8 °F /  22.1 °C 65.5 °F /  18.6 °C 30in /  1017.4hPa NE 2.9mph /  4.7km/h 5.2mph /  8.4km/h 80.3% 0in /  0.0mm
21:39 71.8 °F /  22.1 °C 65.7 °F /  18.7 °C 30in /  1017.4hPa ENE 2.9mph /  4.7km/h 5mph /  8km/h 81% 0in /  0.0mm
21:44 71.8 °F /  22.1 °C 65.7 °F /  18.7 °C 30in /  1017.4hPa ENE 2.9mph /  4.7km/h 5mph /  8km/h 81% 0in /  0.0mm
21:49 71.8 °F /  22.1 °C 65.7 °F /  18.7 °C 30.1in /  1017.7hPa ENE 2.7mph /  4.3km/h 3.5mph /  5.6km/h 81% 0in /  0.0mm
21:54 71.8 °F /  22.1 °C 65.7 °F /  18.7 °C 30.1in /  1017.7hPa ENE 1.8mph /  2.9km/h 2.4mph /  3.9km/h 81% 0in /  0.0mm
21:59 71.8 °F /  22.1 °C 65.7 °F /  18.7 °C 30.1in /  1017.7hPa ENE 1.7mph /  2.7km/h 3.1mph /  5km/h 81% 0in /  0.0mm
22:04 71.8 °F /  22.1 °C 65.7 °F /  18.7 °C 30.1in /  1017.9hPa ENE 1.4mph /  2.2km/h 3.6mph /  5.8km/h 81% 0in /  0.0mm
22:09 71.8 °F /  22.1 °C 65.7 °F /  18.7 °C 30.1in /  1017.9hPa ENE 1.5mph /  2.4km/h 4mph /  6.4km/h 81% 0in /  0.0mm
22:14 71.8 °F /  22.1 °C 65.7 °F /  18.7 °C 30.1in /  1017.9hPa ENE 1.8mph /  2.9km/h 3.6mph /  5.8km/h 81% 0in /  0.0mm
22:19 71.6 °F /  22 °C 65.5 °F /  18.6 °C 30.1in /  1017.9hPa ENE 1.9mph /  3km/h 4mph /  6.4km/h 81% 0in /  0.0mm
22:24 71.4 °F /  21.9 °C 65.5 °F /  18.6 °C 30.1in /  1017.8hPa NE 2mph /  3.2km/h 3mph /  4.8km/h 81% 0in /  0.0mm
22:29 71.4 °F /  21.9 °C 65.3 °F /  18.5 °C 30.1in /  1017.8hPa North 2mph /  3.2km/h 3mph /  4.8km/h 81% 0in /  0.0mm
22:34 71.4 °F /  21.9 °C 65.5 °F /  18.6 °C 30.1in /  1017.9hPa North 1.8mph /  2.9km/h 3.5mph /  5.6km/h 81.4% 0in /  0.0mm
22:39 71.2 °F /  21.8 °C 65.5 °F /  18.6 °C 30.1in /  1017.9hPa North 1.5mph /  2.4km/h 3mph /  4.8km/h 82% 0in /  0.0mm
22:44 71.2 °F /  21.8 °C 65.5 °F /  18.6 °C 30.1in /  1017.9hPa Calm   2.4mph /  3.9km/h 82% 0in /  0.0mm
22:49 71.2 °F /  21.8 °C 65.5 °F /  18.6 °C 30.1in /  1018.1hPa Calm   2.4mph /  3.9km/h 82% 0in /  0.0mm
22:54 71.2 °F /  21.8 °C 65.5 °F /  18.6 °C 30.1in /  1018.1hPa Calm   2.4mph /  3.9km/h 82% 0in /  0.0mm
22:59 71.2 °F /  21.8 °C 65.5 °F /  18.6 °C 30.1in /  1018.1hPa North 0.3mph /  0.5km/h 2.4mph /  3.9km/h 82% 0in /  0.0mm
23:04 71.2 °F /  21.8 °C 65.5 °F /  18.6 °C 30.1in /  1018.1hPa North 1.4mph /  2.2km/h 2.4mph /  3.9km/h 82% 0in /  0.0mm
23:09 71.2 °F /  21.8 °C 65.5 °F /  18.6 °C 30.1in /  1018.0hPa North 1.1mph /  1.8km/h 2.9mph /  4.7km/h 82% 0in /  0.0mm
23:14 71.2 °F /  21.8 °C 65.5 °F /  18.6 °C 30.1in /  1018.0hPa Calm   3mph /  4.8km/h 82% 0in /  0.0mm
23:19 71.2 °F /  21.8 °C 65.5 °F /  18.6 °C 30.1in /  1018.1hPa Calm   3.1mph /  5km/h 82% 0in /  0.0mm
23:24 71.1 °F /  21.7 °C 65.3 °F /  18.5 °C 30.1in /  1018.1hPa Calm   3.5mph /  5.6km/h 82% 0in /  0.0mm
23:29 71.1 °F /  21.7 °C 65.3 °F /  18.5 °C 30.1in /  1018.1hPa North 0.4mph /  0.6km/h 3.6mph /  5.8km/h 82% 0in /  0.0mm
23:34 70.9 °F /  21.6 °C 65.1 °F /  18.4 °C 30.1in /  1018.1hPa North 1.8mph /  2.9km/h 4.6mph /  7.4km/h 82% 0in /  0.0mm
23:39 70.9 °F /  21.6 °C 65.3 °F /  18.5 °C 30.1in /  1018.0hPa NO 1.9mph /  3km/h 5mph /  8km/h 82.6% 0in /  0.0mm
23:44 70.7 °F /  21.5 °C 65.3 °F /  18.5 °C 30.1in /  1018.0hPa NO 2mph /  3.2km/h 5mph /  8km/h 83% 0in /  0.0mm
23:49 70.5 °F /  21.4 °C 65.1 °F /  18.4 °C 30.1in /  1018.0hPa NO 1.9mph /  3km/h 4mph /  6.4km/h 83% 0in /  0.0mm
23:54 70.3 °F /  21.3 °C 65.1 °F /  18.4 °C 30.1in /  1018.0hPa NO 1.4mph /  2.2km/h 3mph /  4.8km/h 83.5% 0in /  0.0mm
23:59 70.3 °F /  21.3 °C 65.3 °F /  18.5 °C 30.1in /  1018.0hPa NO 1.4mph /  2.2km/h 2.9mph /  4.7km/h 84% 0in /  0.0mm
Murcia-Puente Tocinos, España
Compliments of Weather Underground - 2.75 mb

La estación de MeteoMurcia.com, publica sus datos en los siguientes proyectos:

Weather Underground PWS IMURCIAP2 Meteoclimatic www.awekas.at

W3Counter
Web Analytics